Time;durP1;ratioP1;P1;durP2;ratioP2;P2;SDS_P1;SDS_P2;PMS_P1;PMS_P2;Temp;Humidity;BMP_temperature;BMP_pressure;BME280_temperature;BME280_humidity;BME280_pressure;Samples;Min_cycle;Max_cycle;Signal;HPM_P1;HPM_P2
2024/01/10 00:01:37;;;;;;;51.70;17.30;;;;;;;;;;5072335;28;20274;-71
2024/01/10 00:04:03;;;;;;;40.63;17.40;;;;;;;;;;5071341;28;20264;-72
2024/01/10 00:06:29;;;;;;;40.33;16.60;;;;;;;;;;5073905;28;20209;-72
2024/01/10 00:08:55;;;;;;;45.50;20.27;;;;;;;;;;5078808;28;20218;-71
2024/01/10 00:11:21;;;;;;;49.87;18.43;;;;;;;;;;5077108;28;20526;-73
2024/01/10 00:13:47;;;;;;;43.53;17.50;;;;;;;;;;5073491;28;20235;-73
2024/01/10 00:16:13;;;;;;;52.43;18.93;;;;;;;;;;5074504;28;20278;-72
2024/01/10 00:18:42;;;;;;;52.17;20.57;;;;;;;;;;5054126;28;20201;-73
2024/01/10 00:21:08;;;;;;;51.63;20.03;;;;;;;;;;5077817;28;20214;-74
2024/01/10 00:23:34;;;;;;;49.97;19.67;;;;;;;;;;5073754;28;20292;-73
2024/01/10 00:26:00;;;;;;;50.60;18.10;;;;;;;;;;5069789;28;20206;-72
2024/01/10 00:28:27;;;;;;;48.50;18.20;;;;;;;;;;5072806;28;20185;-73
2024/01/10 00:30:53;;;;;;;47.83;18.60;;;;;;;;;;5078350;28;20226;-73
2024/01/10 00:33:19;;;;;;;38.20;16.60;;;;;;;;;;5076629;28;20214;-72
2024/01/10 00:35:45;;;;;;;53.70;18.33;;;;;;;;;;5088182;28;20219;-72
2024/01/10 00:38:11;;;;;;;46.93;17.70;;;;;;;;;;5078166;28;20205;-73
2024/01/10 00:40:37;;;;;;;48.40;18.13;;;;;;;;;;5080541;28;20203;-75
2024/01/10 00:43:03;;;;;;;50.30;20.53;;;;;;;;;;5075171;28;20863;-72
2024/01/10 00:45:30;;;;;;;45.23;17.60;;;;;;;;;;5063306;28;20208;-74
2024/01/10 00:47:56;;;;;;;51.57;20.43;;;;;;;;;;5056716;28;20600;-71
2024/01/10 00:50:22;;;;;;;46.17;18.30;;;;;;;;;;5063157;28;20217;-75
2024/01/10 00:52:48;;;;;;;47.57;18.67;;;;;;;;;;5077106;28;20296;-73
2024/01/10 00:55:14;;;;;;;44.93;18.10;;;;;;;;;;5080333;28;20205;-73
2024/01/10 00:57:40;;;;;;;44.13;16.93;;;;;;;;;;5080206;28;20225;-72
2024/01/10 01:00:07;;;;;;;48.70;18.10;;;;;;;;;;5069314;28;20699;-73
2024/01/10 01:02:33;;;;;;;50.93;18.80;;;;;;;;;;5068743;28;20198;-72
2024/01/10 01:04:59;;;;;;;48.00;17.87;;;;;;;;;;5080637;28;20217;-73
2024/01/10 01:07:25;;;;;;;51.07;20.10;;;;;;;;;;5076248;28;20193;-74
2024/01/10 01:09:51;;;;;;;53.83;18.27;;;;;;;;;;5076912;28;20261;-72
2024/01/10 01:12:17;;;;;;;45.20;17.07;;;;;;;;;;5075012;28;20219;-73
2024/01/10 01:14:43;;;;;;;42.97;17.20;;;;;;;;;;5074497;28;20266;-73
2024/01/10 01:17:09;;;;;;;48.80;16.50;;;;;;;;;;5075984;28;20217;-72
2024/01/10 01:19:35;;;;;;;49.33;19.07;;;;;;;;;;5086182;28;20184;-73
2024/01/10 01:22:01;;;;;;;38.97;16.50;;;;;;;;;;5081409;28;20260;-73
2024/01/10 01:24:27;;;;;;;50.43;16.67;;;;;;;;;;5056193;28;20213;-74
2024/01/10 01:26:53;;;;;;;44.63;18.50;;;;;;;;;;5078238;28;20741;-72
2024/01/10 01:29:19;;;;;;;45.37;19.47;;;;;;;;;;5078308;28;20204;-73
2024/01/10 01:31:45;;;;;;;41.07;18.27;;;;;;;;;;5077697;28;20236;-73
2024/01/10 01:34:12;;;;;;;44.63;18.33;;;;;;;;;;5062113;28;20545;-73
2024/01/10 01:36:38;;;;;;;46.03;17.90;;;;;;;;;;5079031;28;20205;-73
2024/01/10 01:39:04;;;;;;;45.70;18.53;;;;;;;;;;5066075;28;20210;-72
2024/01/10 01:41:30;;;;;;;48.60;16.47;;;;;;;;;;5075658;28;20213;-72
2024/01/10 01:43:56;;;;;;;39.80;16.57;;;;;;;;;;5080031;28;20705;-73
2024/01/10 01:46:22;;;;;;;42.43;18.57;;;;;;;;;;5053019;28;20175;-72
2024/01/10 01:48:49;;;;;;;41.60;17.30;;;;;;;;;;5078821;28;20270;-72
2024/01/10 01:51:16;;;;;;;48.87;18.17;;;;;;;;;;5071483;28;20679;-71
2024/01/10 01:53:42;;;;;;;50.07;18.70;;;;;;;;;;5059941;28;20240;-73
2024/01/10 01:56:09;;;;;;;44.07;18.60;;;;;;;;;;5075369;28;21774;-73
2024/01/10 01:58:36;;;;;;;40.43;16.87;;;;;;;;;;5074398;28;20200;-73
2024/01/10 02:01:05;;;;;;;43.37;17.77;;;;;;;;;;5073948;28;20242;-72
2024/01/10 02:03:35;;;;;;;44.90;17.40;;;;;;;;;;5061376;28;20290;-72
2024/01/10 02:06:04;;;;;;;52.50;19.43;;;;;;;;;;5067449;28;20239;-73
2024/01/10 02:08:31;;;;;;;40.17;17.40;;;;;;;;;;5069437;28;20217;-72
2024/01/10 02:10:57;;;;;;;42.87;16.30;;;;;;;;;;5068857;28;20699;-73
2024/01/10 02:13:24;;;;;;;40.30;16.10;;;;;;;;;;5071271;28;20376;-73
2024/01/10 02:15:50;;;;;;;43.70;18.70;;;;;;;;;;5079104;28;20222;-73
2024/01/10 02:18:16;;;;;;;45.57;18.23;;;;;;;;;;5080797;28;20296;-73
2024/01/10 02:20:45;;;;;;;39.17;17.97;;;;;;;;;;5071377;28;20284;-73
2024/01/10 02:23:11;;;;;;;44.70;17.70;;;;;;;;;;5071883;28;20198;-74
2024/01/10 02:25:37;;;;;;;50.13;17.93;;;;;;;;;;5077255;28;20181;-75
2024/01/10 02:28:03;;;;;;;42.50;17.57;;;;;;;;;;5047881;28;20178;-73
2024/01/10 02:30:30;;;;;;;49.23;17.63;;;;;;;;;;5080033;28;20304;-74
2024/01/10 02:32:56;;;;;;;35.37;15.50;;;;;;;;;;5077984;28;20212;-74
2024/01/10 02:35:22;;;;;;;46.40;18.00;;;;;;;;;;5063123;28;20591;-74
2024/01/10 02:37:51;;;;;;;36.03;15.93;;;;;;;;;;5082957;28;20213;-73
2024/01/10 02:40:17;;;;;;;52.20;18.20;;;;;;;;;;5072744;28;20197;-73
2024/01/10 02:42:43;;;;;;;46.70;16.63;;;;;;;;;;5075797;28;20204;-74
2024/01/10 02:45:09;;;;;;;38.47;17.20;;;;;;;;;;5076984;28;20209;-74
2024/01/10 02:47:38;;;;;;;45.70;17.83;;;;;;;;;;5068088;28;20233;-72
2024/01/10 02:50:05;;;;;;;49.17;16.73;;;;;;;;;;5076330;28;20222;-73
2024/01/10 02:52:31;;;;;;;51.43;18.13;;;;;;;;;;5055597;28;20259;-73
2024/01/10 02:54:57;;;;;;;43.50;17.73;;;;;;;;;;5053674;28;20204;-73
2024/01/10 02:57:23;;;;;;;37.17;16.33;;;;;;;;;;5083044;28;20218;-72
2024/01/10 02:59:49;;;;;;;45.50;15.77;;;;;;;;;;5069067;28;20659;-73
2024/01/10 03:02:15;;;;;;;44.57;18.13;;;;;;;;;;5053262;28;20214;-73
2024/01/10 03:04:43;;;;;;;40.50;15.07;;;;;;;;;;5076717;28;20636;-72
2024/01/10 03:07:09;;;;;;;44.83;16.33;;;;;;;;;;5075873;28;20174;-73
2024/01/10 03:09:35;;;;;;;40.53;18.00;;;;;;;;;;5067832;28;20219;-73
2024/01/10 03:12:01;;;;;;;39.83;15.23;;;;;;;;;;5061653;28;20225;-72
2024/01/10 03:14:27;;;;;;;37.87;15.57;;;;;;;;;;5071130;28;20199;-72
2024/01/10 03:16:53;;;;;;;42.13;16.33;;;;;;;;;;5070487;28;20274;-73
2024/01/10 03:19:20;;;;;;;38.47;16.20;;;;;;;;;;5057632;28;20174;-72
2024/01/10 03:21:46;;;;;;;40.77;16.17;;;;;;;;;;5073676;28;20212;-72
2024/01/10 03:24:12;;;;;;;36.53;16.10;;;;;;;;;;5079664;28;20718;-73
2024/01/10 03:26:38;;;;;;;43.17;17.77;;;;;;;;;;5072690;28;20210;-73
2024/01/10 03:29:04;;;;;;;36.43;16.17;;;;;;;;;;5073202;28;20224;-73
2024/01/10 03:31:31;;;;;;;43.57;16.40;;;;;;;;;;5073526;28;20223;-73
2024/01/10 03:34:00;;;;;;;39.57;15.93;;;;;;;;;;5070807;28;20172;-74
2024/01/10 03:36:26;;;;;;;41.37;15.93;;;;;;;;;;5074292;28;20213;-72
2024/01/10 03:38:52;;;;;;;43.93;16.57;;;;;;;;;;5072604;28;20248;-72
2024/01/10 03:41:19;;;;;;;35.50;14.23;;;;;;;;;;5076527;28;20201;-72
2024/01/10 03:43:45;;;;;;;35.93;15.83;;;;;;;;;;5079817;28;20671;-74
2024/01/10 03:46:11;;;;;;;42.40;16.57;;;;;;;;;;5071953;28;20180;-74
2024/01/10 03:48:40;;;;;;;37.87;14.80;;;;;;;;;;5071631;28;20217;-73
2024/01/10 03:51:06;;;;;;;54.50;16.90;;;;;;;;;;5068401;28;20266;-73
2024/01/10 03:53:32;;;;;;;43.60;16.60;;;;;;;;;;5066172;28;20703;-74
2024/01/10 03:55:58;;;;;;;42.83;17.63;;;;;;;;;;5068461;28;20315;-73
2024/01/10 03:58:24;;;;;;;44.83;16.93;;;;;;;;;;5068723;28;20263;-75
2024/01/10 04:00:50;;;;;;;43.13;15.97;;;;;;;;;;5050988;28;20688;-76
2024/01/10 04:03:16;;;;;;;46.67;16.10;;;;;;;;;;5062817;28;20201;-74
2024/01/10 04:05:42;;;;;;;35.73;14.13;;;;;;;;;;5076653;28;20202;-73
2024/01/10 04:08:08;;;;;;;32.53;15.10;;;;;;;;;;5068692;28;20197;-74
2024/01/10 04:10:34;;;;;;;39.47;15.30;;;;;;;;;;5079363;28;20196;-73
2024/01/10 04:13:00;;;;;;;41.33;16.37;;;;;;;;;;5076566;28;20278;-72
2024/01/10 04:15:26;;;;;;;32.60;13.37;;;;;;;;;;5080559;28;20323;-74
2024/01/10 04:17:52;;;;;;;44.17;15.73;;;;;;;;;;5093340;28;20289;-73
2024/01/10 04:20:18;;;;;;;37.73;16.20;;;;;;;;;;5068419;28;20208;-73
2024/01/10 04:22:44;;;;;;;39.20;16.17;;;;;;;;;;5093769;28;20219;-73
2024/01/10 04:25:11;;;;;;;39.37;16.60;;;;;;;;;;5088688;28;20180;-74
2024/01/10 04:27:37;;;;;;;37.97;14.77;;;;;;;;;;5079840;28;20208;-73
2024/01/10 04:30:03;;;;;;;36.70;15.17;;;;;;;;;;5068923;28;20220;-73
2024/01/10 04:32:29;;;;;;;36.23;17.00;;;;;;;;;;5074298;28;20201;-73
2024/01/10 04:34:55;;;;;;;35.73;14.87;;;;;;;;;;5074322;28;20286;-73
2024/01/10 04:37:21;;;;;;;35.83;15.03;;;;;;;;;;5051792;28;20598;-74
2024/01/10 04:39:47;;;;;;;41.23;16.33;;;;;;;;;;5072187;28;20205;-73
2024/01/10 04:42:13;;;;;;;37.70;15.37;;;;;;;;;;5073769;28;20684;-74
2024/01/10 04:44:39;;;;;;;46.10;15.83;;;;;;;;;;5066446;28;20194;-74
2024/01/10 04:47:06;;;;;;;41.73;15.67;;;;;;;;;;5048380;28;20214;-73
2024/01/10 04:49:32;;;;;;;42.10;16.80;;;;;;;;;;5075404;28;20735;-73
2024/01/10 04:51:58;;;;;;;40.57;16.87;;;;;;;;;;5068360;28;20213;-74
2024/01/10 04:54:24;;;;;;;46.27;16.17;;;;;;;;;;5071055;28;20312;-72
2024/01/10 04:56:50;;;;;;;40.93;17.47;;;;;;;;;;5070758;28;20256;-73
2024/01/10 04:59:16;;;;;;;41.73;15.93;;;;;;;;;;5073991;28;20244;-73
2024/01/10 05:01:42;;;;;;;44.30;15.67;;;;;;;;;;5070994;28;20193;-73
2024/01/10 05:04:08;;;;;;;38.20;15.97;;;;;;;;;;5073567;28;20199;-73
2024/01/10 05:06:34;;;;;;;41.90;15.50;;;;;;;;;;5075925;28;20204;-73
2024/01/10 05:09:00;;;;;;;48.27;16.97;;;;;;;;;;5078613;28;20208;-73
2024/01/10 05:11:26;;;;;;;48.30;15.97;;;;;;;;;;5051283;28;20259;-73
2024/01/10 05:13:53;;;;;;;41.33;15.90;;;;;;;;;;5074669;28;20216;-73
2024/01/10 05:16:18;;;;;;;39.33;17.80;;;;;;;;;;5075227;28;20207;-72
2024/01/10 05:18:45;;;;;;;51.30;17.57;;;;;;;;;;5054214;28;20262;-71
2024/01/10 05:21:11;;;;;;;43.13;17.63;;;;;;;;;;5078528;28;20209;-72
2024/01/10 05:23:38;;;;;;;38.87;17.00;;;;;;;;;;5057105;28;20297;-73
2024/01/10 05:26:04;;;;;;;40.30;17.00;;;;;;;;;;5060843;28;20200;-71
2024/01/10 05:28:30;;;;;;;41.00;16.97;;;;;;;;;;5057993;28;20169;-72
2024/01/10 05:30:56;;;;;;;41.00;16.90;;;;;;;;;;5081779;28;20666;-73
2024/01/10 05:33:22;;;;;;;44.17;18.33;;;;;;;;;;5076525;28;20216;-73
2024/01/10 05:35:48;;;;;;;43.13;18.00;;;;;;;;;;5077485;28;20746;-73
2024/01/10 05:38:14;;;;;;;35.67;17.20;;;;;;;;;;5061457;28;20215;-73
2024/01/10 05:40:40;;;;;;;42.37;16.47;;;;;;;;;;5071248;28;20193;-73
2024/01/10 05:43:13;;;;;;;41.50;16.27;;;;;;;;;;5072339;28;20521;-72
2024/01/10 05:45:39;;;;;;;39.37;15.83;;;;;;;;;;5076392;28;20214;-73
2024/01/10 05:48:06;;;;;;;52.20;18.40;;;;;;;;;;5082553;28;20211;-72
2024/01/10 05:50:32;;;;;;;45.23;17.67;;;;;;;;;;5075377;28;20236;-73
2024/01/10 05:52:58;;;;;;;43.90;17.03;;;;;;;;;;5076950;28;20216;-74
2024/01/10 05:55:24;;;;;;;43.10;16.10;;;;;;;;;;5076700;28;20655;-73
2024/01/10 05:57:50;;;;;;;44.13;17.07;;;;;;;;;;5071436;28;20245;-72
2024/01/10 06:00:17;;;;;;;43.60;16.33;;;;;;;;;;5056750;28;20205;-71
2024/01/10 06:02:43;;;;;;;39.93;16.30;;;;;;;;;;5068044;28;20278;-73
2024/01/10 06:05:10;;;;;;;41.27;17.23;;;;;;;;;;5077048;28;20223;-73
2024/01/10 06:07:36;;;;;;;36.33;16.27;;;;;;;;;;5074887;28;20280;-72
2024/01/10 06:10:02;;;;;;;44.17;17.93;;;;;;;;;;5074839;28;20230;-72
2024/01/10 06:12:28;;;;;;;35.47;15.83;;;;;;;;;;5057155;28;20213;-72
2024/01/10 06:14:54;;;;;;;34.63;14.77;;;;;;;;;;5054645;28;20229;-70
2024/01/10 06:17:21;;;;;;;42.90;15.93;;;;;;;;;;5075722;28;20222;-71
2024/01/10 06:19:48;;;;;;;43.30;16.67;;;;;;;;;;5053811;28;20220;-72
2024/01/10 06:22:14;;;;;;;44.00;16.40;;;;;;;;;;5073453;28;20216;-74
2024/01/10 06:24:43;;;;;;;45.17;16.77;;;;;;;;;;5078768;28;20207;-72
2024/01/10 06:27:09;;;;;;;43.50;16.40;;;;;;;;;;5072157;28;20299;-72
2024/01/10 06:29:36;;;;;;;41.77;17.80;;;;;;;;;;5052417;28;20583;-72
2024/01/10 06:32:02;;;;;;;44.67;16.33;;;;;;;;;;5072100;28;20250;-71
2024/01/10 06:34:28;;;;;;;41.47;17.03;;;;;;;;;;5069386;28;20538;-74
2024/01/10 06:36:54;;;;;;;33.27;16.67;;;;;;;;;;5070672;28;20691;-72
2024/01/10 06:39:20;;;;;;;40.17;16.53;;;;;;;;;;5074199;28;20213;-71
2024/01/10 06:41:49;;;;;;;46.10;17.27;;;;;;;;;;5066926;28;20205;-70
2024/01/10 06:44:17;;;;;;;38.50;14.97;;;;;;;;;;5072857;28;20699;-68
2024/01/10 06:46:43;;;;;;;44.10;17.67;;;;;;;;;;5056291;28;20178;-71
2024/01/10 06:49:09;;;;;;;46.27;17.73;;;;;;;;;;5070130;28;20590;-72
2024/01/10 06:51:35;;;;;;;43.10;18.97;;;;;;;;;;5052591;28;20573;-71
2024/01/10 06:54:05;;;;;;;47.40;17.20;;;;;;;;;;5070640;28;20212;-71
2024/01/10 06:56:32;;;;;;;43.57;16.40;;;;;;;;;;5074456;28;20354;-69
2024/01/10 06:58:58;;;;;;;43.13;16.63;;;;;;;;;;5070651;28;20224;-70
2024/01/10 07:01:24;;;;;;;48.90;17.10;;;;;;;;;;5071372;28;20303;-73
2024/01/10 07:03:50;;;;;;;39.80;16.60;;;;;;;;;;5078529;28;20184;-72
2024/01/10 07:06:17;;;;;;;59.10;18.03;;;;;;;;;;5079027;28;20221;-72
2024/01/10 07:08:44;;;;;;;40.83;17.40;;;;;;;;;;5055763;28;20948;-71
2024/01/10 07:11:13;;;;;;;56.47;17.10;;;;;;;;;;5071034;28;20694;-71
2024/01/10 07:13:40;;;;;;;45.30;17.83;;;;;;;;;;5059174;28;20173;-71
2024/01/10 07:16:06;;;;;;;47.63;18.47;;;;;;;;;;5055416;28;20235;-74
2024/01/10 07:18:33;;;;;;;44.60;16.93;;;;;;;;;;5052811;28;20221;-71
2024/01/10 07:20:59;;;;;;;52.07;18.23;;;;;;;;;;5074620;28;20224;-71
2024/01/10 07:23:25;;;;;;;42.97;17.87;;;;;;;;;;5069619;28;20209;-71
2024/01/10 07:25:51;;;;;;;39.43;17.90;;;;;;;;;;5070380;28;20815;-72
2024/01/10 07:28:17;;;;;;;44.87;16.97;;;;;;;;;;5073462;28;20177;-71
2024/01/10 07:30:44;;;;;;;43.33;17.00;;;;;;;;;;5072990;28;20300;-72
2024/01/10 07:33:10;;;;;;;44.17;16.23;;;;;;;;;;5075191;28;20300;-72
2024/01/10 07:35:38;;;;;;;45.37;18.00;;;;;;;;;;5071564;28;20294;-70
2024/01/10 07:38:04;;;;;;;48.67;18.03;;;;;;;;;;5075598;28;20304;-72
2024/01/10 07:40:30;;;;;;;44.33;17.40;;;;;;;;;;5054305;28;20197;-69
2024/01/10 07:42:56;;;;;;;40.63;16.30;;;;;;;;;;5061774;28;20191;-69
2024/01/10 07:45:22;;;;;;;46.47;18.43;;;;;;;;;;5075241;28;20569;-72
2024/01/10 07:47:48;;;;;;;53.53;19.17;;;;;;;;;;5072361;28;20205;-72
2024/01/10 07:50:14;;;;;;;40.87;15.57;;;;;;;;;;5073495;28;20296;-73
2024/01/10 07:52:41;;;;;;;35.77;16.03;;;;;;;;;;5076833;28;20197;-73
2024/01/10 07:55:08;;;;;;;41.53;17.40;;;;;;;;;;5073712;28;20199;-72
2024/01/10 07:57:35;;;;;;;41.53;17.57;;;;;;;;;;5058028;28;20749;-71
2024/01/10 08:00:01;;;;;;;42.47;17.67;;;;;;;;;;5053681;28;20217;-73
2024/01/10 08:02:27;;;;;;;43.07;18.27;;;;;;;;;;5072723;28;20242;-73
2024/01/10 08:04:53;;;;;;;40.87;16.70;;;;;;;;;;5069292;28;20221;-72
2024/01/10 08:07:19;;;;;;;43.17;16.23;;;;;;;;;;5075213;28;20264;-73
2024/01/10 08:09:46;;;;;;;38.37;16.27;;;;;;;;;;5070788;28;20709;-74
2024/01/10 08:12:13;;;;;;;44.80;17.53;;;;;;;;;;5070988;28;20293;-73
2024/01/10 08:14:40;;;;;;;48.77;18.40;;;;;;;;;;5073898;28;20204;-73
2024/01/10 08:17:06;;;;;;;46.53;18.10;;;;;;;;;;5057453;28;20287;-75
2024/01/10 08:19:33;;;;;;;44.67;18.07;;;;;;;;;;5071978;28;20186;-74
2024/01/10 08:21:59;;;;;;;48.47;19.10;;;;;;;;;;5074733;28;20201;-74
2024/01/10 08:24:25;;;;;;;47.70;17.07;;;;;;;;;;5074116;28;20230;-72
2024/01/10 08:26:54;;;;;;;47.33;20.07;;;;;;;;;;5052033;28;20220;-72
2024/01/10 08:29:20;;;;;;;42.90;17.33;;;;;;;;;;5077861;28;20216;-74
2024/01/10 08:31:46;;;;;;;39.37;16.07;;;;;;;;;;5070665;28;20275;-73
2024/01/10 08:34:12;;;;;;;41.23;17.00;;;;;;;;;;5052678;28;20206;-73
2024/01/10 08:36:38;;;;;;;44.77;15.83;;;;;;;;;;5074030;28;20270;-73
2024/01/10 08:39:06;;;;;;;38.20;16.93;;;;;;;;;;5055234;28;20211;-73
2024/01/10 08:41:32;;;;;;;37.53;15.83;;;;;;;;;;5073010;28;20284;-73
2024/01/10 08:43:58;;;;;;;35.70;14.60;;;;;;;;;;5075752;28;20274;-72
2024/01/10 08:46:24;;;;;;;35.93;15.60;;;;;;;;;;5071042;28;20205;-73
2024/01/10 08:48:51;;;;;;;40.17;17.13;;;;;;;;;;5067825;28;20334;-74
2024/01/10 08:51:17;;;;;;;39.53;16.97;;;;;;;;;;5058436;28;20225;-73
2024/01/10 08:53:44;;;;;;;32.80;15.93;;;;;;;;;;5052984;28;20210;-72
2024/01/10 08:56:10;;;;;;;37.77;15.50;;;;;;;;;;5083349;28;20221;-74
2024/01/10 08:58:36;;;;;;;40.77;16.83;;;;;;;;;;5073961;28;20175;-73
2024/01/10 09:01:04;;;;;;;36.63;16.83;;;;;;;;;;5075787;28;20201;-74
2024/01/10 09:03:30;;;;;;;39.63;16.10;;;;;;;;;;5075365;28;20280;-73
2024/01/10 09:05:56;;;;;;;34.47;15.30;;;;;;;;;;5074446;28;20279;-74
2024/01/10 09:08:22;;;;;;;36.17;17.23;;;;;;;;;;5075877;28;20301;-73
2024/01/10 09:10:49;;;;;;;28.27;15.13;;;;;;;;;;5074659;28;20948;-73
2024/01/10 09:13:15;;;;;;;32.63;15.33;;;;;;;;;;5074573;28;20187;-73
2024/01/10 09:15:41;;;;;;;34.60;14.53;;;;;;;;;;5078506;28;20826;-74
2024/01/10 09:18:08;;;;;;;32.37;14.93;;;;;;;;;;5082027;28;20215;-74
2024/01/10 09:20:34;;;;;;;37.53;15.50;;;;;;;;;;5078159;28;20217;-71
2024/01/10 09:23:00;;;;;;;33.63;14.47;;;;;;;;;;5065365;28;20212;-74
2024/01/10 09:25:26;;;;;;;32.90;15.13;;;;;;;;;;5073470;28;20603;-75
2024/01/10 09:27:52;;;;;;;33.20;14.73;;;;;;;;;;5073949;28;20184;-74
2024/01/10 09:30:18;;;;;;;27.10;13.20;;;;;;;;;;5079790;28;20222;-74
2024/01/10 09:32:44;;;;;;;29.90;13.97;;;;;;;;;;5053529;28;20630;-72
2024/01/10 09:35:10;;;;;;;32.53;14.33;;;;;;;;;;5078810;28;20800;-72
2024/01/10 09:37:36;;;;;;;31.90;15.57;;;;;;;;;;5056205;28;20221;-73
2024/01/10 09:40:03;;;;;;;36.30;15.27;;;;;;;;;;5077510;28;20270;-74
2024/01/10 09:42:31;;;;;;;33.67;15.17;;;;;;;;;;5074656;28;20611;-74
2024/01/10 09:44:57;;;;;;;33.50;14.17;;;;;;;;;;5070453;28;20218;-74
2024/01/10 09:47:24;;;;;;;30.23;13.37;;;;;;;;;;5048661;28;20216;-71
2024/01/10 09:49:50;;;;;;;36.53;14.57;;;;;;;;;;5074444;28;20223;-74
2024/01/10 09:52:26;;;;;;;31.80;14.07;;;;;;;;;;5074829;28;20244;-73
2024/01/10 09:54:56;;;;;;;35.87;13.03;;;;;;;;;;5053295;28;20311;-72
2024/01/10 09:57:23;;;;;;;30.20;13.67;;;;;;;;;;5057440;28;20219;-74
2024/01/10 09:59:51;;;;;;;29.57;12.60;;;;;;;;;;5077488;28;20212;-75
2024/01/10 10:02:18;;;;;;;32.87;15.10;;;;;;;;;;5076745;28;20339;-74
2024/01/10 10:04:50;;;;;;;34.20;14.33;;;;;;;;;;5052118;28;20252;-74
2024/01/10 10:07:16;;;;;;;37.00;15.77;;;;;;;;;;5063174;28;20658;-73
2024/01/10 10:09:42;;;;;;;28.93;14.20;;;;;;;;;;5070432;28;20248;-73
2024/01/10 10:12:09;;;;;;;31.77;14.63;;;;;;;;;;5082895;28;20215;-75
2024/01/10 10:14:35;;;;;;;33.43;14.50;;;;;;;;;;5079612;28;20680;-73
2024/01/10 10:17:21;;;;;;;28.50;13.97;;;;;;;;;;5082693;28;20700;-74
2024/01/10 10:19:47;;;;;;;35.47;14.80;;;;;;;;;;5075611;28;20211;-74
2024/01/10 10:22:13;;;;;;;33.77;14.80;;;;;;;;;;5081604;28;20634;-72
2024/01/10 10:24:41;;;;;;;38.20;14.47;;;;;;;;;;5074078;28;20217;-73
2024/01/10 10:27:11;;;;;;;37.90;13.83;;;;;;;;;;5059034;28;20198;-74
2024/01/10 10:29:37;;;;;;;29.87;12.97;;;;;;;;;;5055988;28;20201;-73
2024/01/10 10:32:03;;;;;;;35.17;15.40;;;;;;;;;;5069543;28;20275;-72
2024/01/10 10:34:32;;;;;;;32.57;13.50;;;;;;;;;;5059749;28;20844;-74
2024/01/10 10:36:58;;;;;;;26.70;13.07;;;;;;;;;;5076634;28;20668;-74
2024/01/10 10:39:25;;;;;;;31.83;13.37;;;;;;;;;;5054071;28;20231;-73
2024/01/10 10:41:54;;;;;;;22.03;11.00;;;;;;;;;;5080983;28;20621;-73
2024/01/10 10:44:23;;;;;;;30.13;12.27;;;;;;;;;;5065787;28;20208;-73
2024/01/10 10:46:57;;;;;;;30.50;12.80;;;;;;;;;;5073161;28;20214;-75
2024/01/10 10:49:27;;;;;;;35.87;12.60;;;;;;;;;;5079668;28;20548;-74
2024/01/10 10:51:55;;;;;;;27.13;12.13;;;;;;;;;;5071983;28;20198;-73
2024/01/10 10:54:21;;;;;;;28.77;12.53;;;;;;;;;;5081231;28;20213;-73
2024/01/10 10:56:48;;;;;;;27.90;12.93;;;;;;;;;;5072985;28;20206;-73
2024/01/10 10:59:16;;;;;;;31.90;12.73;;;;;;;;;;5080492;28;20212;-73
2024/01/10 11:01:42;;;;;;;26.67;12.43;;;;;;;;;;5052942;28;20205;-73
2024/01/10 11:04:08;;;;;;;24.20;11.33;;;;;;;;;;5075922;28;20178;-74
2024/01/10 11:06:34;;;;;;;33.00;13.80;;;;;;;;;;5063863;28;20206;-74
2024/01/10 11:09:04;;;;;;;23.20;12.00;;;;;;;;;;5075913;28;20275;-73
2024/01/10 11:11:37;;;;;;;27.33;11.27;;;;;;;;;;5070643;28;20216;-72
2024/01/10 11:14:12;;;;;;;27.67;11.63;;;;;;;;;;5078665;28;20271;-73
2024/01/10 11:16:50;;;;;;;24.60;11.27;;;;;;;;;;5075121;28;20713;-73
2024/01/10 11:19:19;;;;;;;24.57;12.10;;;;;;;;;;5053559;28;20233;-73
2024/01/10 11:22:06;;;;;;;30.37;13.07;;;;;;;;;;5075363;28;20687;-73
2024/01/10 11:24:32;;;;;;;27.33;13.73;;;;;;;;;;5062487;28;20690;-72
2024/01/10 11:27:08;;;;;;;30.67;13.30;;;;;;;;;;5075967;28;20216;-73
2024/01/10 11:29:37;;;;;;;26.73;12.40;;;;;;;;;;5071072;28;20220;-72
2024/01/10 11:32:05;;;;;;;32.87;14.93;;;;;;;;;;5057110;28;20302;-73
2024/01/10 11:34:31;;;;;;;28.63;14.30;;;;;;;;;;5071470;28;20170;-73
2024/01/10 11:37:09;;;;;;;30.77;14.17;;;;;;;;;;5072352;28;20205;-72
2024/01/10 11:39:36;;;;;;;32.07;14.57;;;;;;;;;;5072588;28;20205;-72
2024/01/10 11:42:02;;;;;;;32.93;14.23;;;;;;;;;;5069413;28;20213;-72
2024/01/10 11:44:28;;;;;;;28.73;12.33;;;;;;;;;;5048456;28;20238;-73
2024/01/10 11:46:55;;;;;;;29.17;14.20;;;;;;;;;;5076900;28;20704;-71
2024/01/10 11:49:22;;;;;;;28.43;15.13;;;;;;;;;;5067377;28;20238;-72
2024/01/10 11:51:52;;;;;;;35.97;16.07;;;;;;;;;;5071032;28;20219;-73
2024/01/10 11:54:37;;;;;;;31.63;15.07;;;;;;;;;;5068747;28;20209;-73
2024/01/10 11:57:04;;;;;;;34.57;13.83;;;;;;;;;;5068768;28;20317;-72
2024/01/10 11:59:30;;;;;;;33.17;14.33;;;;;;;;;;5076950;28;20210;-72
2024/01/10 12:01:56;;;;;;;29.40;12.67;;;;;;;;;;5074373;28;20730;-72
2024/01/10 12:04:22;;;;;;;29.40;12.77;;;;;;;;;;5073142;28;20305;-73
2024/01/10 12:06:48;;;;;;;34.33;12.83;;;;;;;;;;5082217;28;20217;-73
2024/01/10 12:09:14;;;;;;;26.40;12.50;;;;;;;;;;5049622;28;20639;-73
2024/01/10 12:11:44;;;;;;;29.27;13.27;;;;;;;;;;5076435;28;20223;-73
2024/01/10 12:14:10;;;;;;;28.67;12.17;;;;;;;;;;5056839;28;20341;-73
2024/01/10 12:16:36;;;;;;;26.47;11.27;;;;;;;;;;5075555;28;20209;-73
2024/01/10 12:19:03;;;;;;;30.07;12.43;;;;;;;;;;5074227;28;20257;-73
2024/01/10 12:21:30;;;;;;;27.77;12.87;;;;;;;;;;5073142;28;20228;-73
2024/01/10 12:23:56;;;;;;;27.73;12.83;;;;;;;;;;5069678;28;20209;-74
2024/01/10 12:26:22;;;;;;;26.23;12.57;;;;;;;;;;5070291;28;20214;-73
2024/01/10 12:28:58;;;;;;;26.50;12.63;;;;;;;;;;5069998;28;20258;-72
2024/01/10 12:31:25;;;;;;;23.87;11.37;;;;;;;;;;5067433;28;20752;-71
2024/01/10 12:33:51;;;;;;;26.90;12.23;;;;;;;;;;5073032;28;20183;-72
2024/01/10 12:36:18;;;;;;;29.13;12.20;;;;;;;;;;5073391;28;20210;-72
2024/01/10 12:38:44;;;;;;;27.97;12.33;;;;;;;;;;5075215;28;20210;-73
2024/01/10 12:41:11;;;;;;;33.60;13.53;;;;;;;;;;5074810;28;20220;-73
2024/01/10 12:43:38;;;;;;;28.43;12.60;;;;;;;;;;5080030;28;20182;-73
2024/01/10 12:46:11;;;;;;;29.67;13.53;;;;;;;;;;5074753;28;20203;-72
2024/01/10 12:48:37;;;;;;;26.00;11.37;;;;;;;;;;5069775;28;20216;-74
2024/01/10 12:51:07;;;;;;;26.03;12.10;;;;;;;;;;5068917;28;20221;-72
2024/01/10 12:53:37;;;;;;;28.13;12.40;;;;;;;;;;5068783;28;20753;-73
2024/01/10 12:56:04;;;;;;;27.23;12.07;;;;;;;;;;5072404;28;20225;-74
2024/01/10 12:58:31;;;;;;;35.87;12.80;;;;;;;;;;5076242;28;20735;-72
2024/01/10 13:00:57;;;;;;;26.60;12.67;;;;;;;;;;5073477;28;20826;-72
2024/01/10 13:03:24;;;;;;;28.37;11.90;;;;;;;;;;5076466;28;20225;-72
2024/01/10 13:05:50;;;;;;;30.40;13.17;;;;;;;;;;5053606;28;20210;-73
2024/01/10 13:08:16;;;;;;;29.80;12.07;;;;;;;;;;5063265;28;20283;-73
2024/01/10 13:10:42;;;;;;;29.53;14.07;;;;;;;;;;5073716;28;20217;-73
2024/01/10 13:13:08;;;;;;;29.20;14.63;;;;;;;;;;5051504;28;20206;-73
2024/01/10 13:15:34;;;;;;;28.50;12.13;;;;;;;;;;5067778;28;20210;-73
2024/01/10 13:18:00;;;;;;;34.30;14.50;;;;;;;;;;5067581;28;20214;-75
2024/01/10 13:20:27;;;;;;;31.63;14.37;;;;;;;;;;5072347;28;20215;-74
2024/01/10 13:22:53;;;;;;;33.13;15.00;;;;;;;;;;5071257;28;20230;-73
2024/01/10 13:25:23;;;;;;;31.70;14.87;;;;;;;;;;5077995;28;20289;-73
2024/01/10 13:27:50;;;;;;;31.93;13.97;;;;;;;;;;5070720;28;20214;-73
2024/01/10 13:30:17;;;;;;;31.90;15.47;;;;;;;;;;5071955;28;20233;-73
2024/01/10 13:32:43;;;;;;;30.30;13.10;;;;;;;;;;5057486;28;20206;-74
2024/01/10 13:35:09;;;;;;;33.47;14.90;;;;;;;;;;5053136;28;20219;-74
2024/01/10 13:37:35;;;;;;;33.83;14.90;;;;;;;;;;5055788;28;20213;-73
2024/01/10 13:40:05;;;;;;;29.53;13.60;;;;;;;;;;5075293;28;20253;-75
2024/01/10 13:42:32;;;;;;;34.60;14.83;;;;;;;;;;5052872;28;20202;-71
2024/01/10 13:44:58;;;;;;;32.53;15.37;;;;;;;;;;5054813;28;20209;-73
2024/01/10 13:47:24;;;;;;;35.60;15.40;;;;;;;;;;5052742;28;20211;-73
2024/01/10 13:49:51;;;;;;;35.20;15.00;;;;;;;;;;5054156;28;20305;-72
2024/01/10 13:52:17;;;;;;;37.40;15.83;;;;;;;;;;5060806;28;20178;-72
2024/01/10 13:54:43;;;;;;;34.10;14.43;;;;;;;;;;5054936;28;20210;-73
2024/01/10 13:57:09;;;;;;;35.47;16.13;;;;;;;;;;5049259;28;20616;-74
2024/01/10 13:59:35;;;;;;;38.87;16.63;;;;;;;;;;5053556;28;20200;-73
2024/01/10 14:02:01;;;;;;;30.77;14.77;;;;;;;;;;5072681;28;20303;-73
2024/01/10 14:04:27;;;;;;;30.67;13.93;;;;;;;;;;5061107;28;20232;-72
2024/01/10 14:06:53;;;;;;;34.20;14.53;;;;;;;;;;5058844;28;20181;-74
2024/01/10 14:09:19;;;;;;;36.33;14.30;;;;;;;;;;5050301;28;20233;-73
2024/01/10 14:11:48;;;;;;;26.90;14.00;;;;;;;;;;5058438;28;20209;-74
2024/01/10 14:14:14;;;;;;;28.80;13.70;;;;;;;;;;5056130;28;20215;-74